Time;durP1;ratioP1;P1;durP2;ratioP2;P2;SDS_P1;SDS_P2;PMS_P1;PMS_P2;Temp;Humidity;BMP_temperature;BMP_pressure;BME280_temperature;BME280_humidity;BME280_pressure;Samples;Min_cycle;Max_cycle;Signal;HPM_P1;HPM_P2
2021/09/08 00:00:49;;;;;;;42.50;24.63;;;14.90;99.90;;;;;;4848678;29;20063;-90
2021/09/08 00:03:14;;;;;;;40.20;24.52;;;14.80;99.90;;;;;;4850916;29;20045;-91
2021/09/08 00:05:40;;;;;;;44.30;26.20;;;14.80;99.90;;;;;;4843671;29;20505;-92
2021/09/08 00:08:06;;;;;;;48.92;26.85;;;14.80;99.90;;;;;;4880329;29;20049;-91
2021/09/08 00:10:32;;;;;;;46.58;27.73;;;14.80;99.90;;;;;;4883998;29;20477;-91
2021/09/08 00:12:58;;;;;;;44.78;26.92;;;14.70;99.90;;;;;;4853134;29;20048;-91
2021/09/08 00:15:24;;;;;;;45.95;27.75;;;14.70;99.90;;;;;;4847294;29;20044;-91
2021/09/08 00:17:50;;;;;;;44.72;26.83;;;14.70;99.90;;;;;;4834287;29;20513;-91
2021/09/08 00:20:15;;;;;;;48.50;27.67;;;14.70;99.90;;;;;;4861644;29;20045;-91
2021/09/08 00:22:43;;;;;;;49.70;29.15;;;14.70;99.90;;;;;;4830471;29;20164;-91
2021/09/08 00:25:09;;;;;;;54.83;28.48;;;14.60;99.90;;;;;;4861598;29;20142;-91
2021/09/08 00:27:35;;;;;;;49.83;29.20;;;14.60;99.90;;;;;;4860931;29;20413;-91
2021/09/08 00:30:01;;;;;;;61.45;30.33;;;14.60;99.90;;;;;;4861072;29;20053;-91
2021/09/08 00:32:26;;;;;;;45.58;25.42;;;14.50;99.90;;;;;;4845378;29;20049;-88
2021/09/08 00:34:52;;;;;;;48.03;27.63;;;14.50;99.90;;;;;;4844477;29;20060;-90
2021/09/08 00:37:18;;;;;;;45.95;26.23;;;14.50;99.90;;;;;;4845665;29;20375;-90
2021/09/08 00:39:44;;;;;;;39.58;24.67;;;14.40;99.90;;;;;;4830377;29;20108;-91
2021/09/08 00:42:11;;;;;;;45.38;25.67;;;14.40;99.90;;;;;;4847919;29;20055;-89
2021/09/08 00:44:37;;;;;;;39.88;24.08;;;14.30;99.90;;;;;;4844529;29;20414;-90
2021/09/08 00:47:03;;;;;;;44.40;24.95;;;14.30;99.90;;;;;;4875442;29;20056;-89
2021/09/08 00:49:29;;;;;;;41.40;24.63;;;14.20;99.90;;;;;;4875918;29;20049;-88
2021/09/08 00:51:56;;;;;;;43.58;27.23;;;14.20;99.90;;;;;;4832841;29;20060;-90
2021/09/08 00:54:23;;;;;;;45.28;25.63;;;14.20;99.90;;;;;;4837194;29;20506;-89
2021/09/08 00:56:53;;;;;;;45.05;27.23;;;14.20;99.90;;;;;;4870185;29;20140;-90
2021/09/08 00:59:20;;;;;;;54.80;30.02;;;14.20;99.90;;;;;;4852636;29;20761;-90
2021/09/08 01:01:46;;;;;;;51.33;29.20;;;14.20;99.90;;;;;;4855938;29;20089;-90
2021/09/08 01:04:14;;;;;;;44.15;25.92;;;14.10;99.90;;;;;;4860664;29;20049;-91
2021/09/08 01:06:40;;;;;;;45.83;28.45;;;14.10;99.90;;;;;;4855188;29;20101;-89
2021/09/08 01:09:06;;;;;;;52.00;27.15;;;14.10;99.90;;;;;;4845358;29;20454;-89
2021/09/08 01:11:34;;;;;;;45.08;26.20;;;14.10;99.90;;;;;;4861014;29;20063;-90
2021/09/08 01:14:00;;;;;;;44.90;24.95;;;14.00;99.90;;;;;;4844895;29;20525;-91
2021/09/08 01:16:26;;;;;;;48.80;26.58;;;14.00;99.90;;;;;;4860277;29;20049;-90
2021/09/08 01:18:51;;;;;;;42.03;24.80;;;13.90;99.90;;;;;;4859877;29;20502;-90
2021/09/08 01:21:17;;;;;;;43.83;25.38;;;13.90;99.90;;;;;;4859921;29;20045;-91
2021/09/08 01:23:43;;;;;;;39.55;22.67;;;13.80;99.90;;;;;;4851702;29;20057;-91
2021/09/08 01:26:09;;;;;;;41.40;24.65;;;13.80;99.90;;;;;;4857618;29;20053;-91
2021/09/08 01:28:35;;;;;;;54.13;31.33;;;13.80;99.90;;;;;;4860473;29;20044;-90
2021/09/08 01:31:02;;;;;;;64.50;34.22;;;13.80;99.90;;;;;;4871462;29;20057;-90
2021/09/08 01:33:27;;;;;;;67.35;34.58;;;13.90;99.90;;;;;;4845214;29;20529;-91
2021/09/08 01:35:53;;;;;;;65.90;34.58;;;13.90;99.90;;;;;;4860041;29;20056;-89
2021/09/08 01:38:19;;;;;;;59.78;31.58;;;14.00;99.90;;;;;;4839740;29;20050;-89
2021/09/08 01:40:44;;;;;;;64.65;34.83;;;14.00;99.90;;;;;;4853564;29;20058;-90
2021/09/08 01:43:10;;;;;;;63.13;33.33;;;14.00;99.90;;;;;;4844277;29;20053;-89
2021/09/08 01:45:41;;;;;;;57.08;31.20;;;14.00;99.90;;;;;;4875419;29;20053;-90
2021/09/08 01:48:10;;;;;;;68.97;35.97;;;14.00;99.90;;;;;;4860174;29;20057;-89
2021/09/08 01:50:37;;;;;;;74.10;37.75;;;14.00;99.90;;;;;;4840415;29;20405;-89
2021/09/08 01:53:03;;;;;;;76.47;40.38;;;14.00;99.90;;;;;;4859545;29;20129;-90
2021/09/08 01:55:29;;;;;;;84.97;42.50;;;14.10;99.90;;;;;;4858416;29;20081;-89
2021/09/08 01:57:55;;;;;;;94.75;44.63;;;14.20;99.90;;;;;;4850619;29;20132;-90
2021/09/08 02:00:20;;;;;;;78.13;40.42;;;14.30;99.90;;;;;;4844405;29;20075;-90
2021/09/08 02:02:46;;;;;;;83.68;43.08;;;14.30;99.90;;;;;;4856145;29;20051;-90
2021/09/08 02:05:16;;;;;;;81.40;40.20;;;14.40;99.90;;;;;;4863174;29;20411;-89
2021/09/08 02:07:42;;;;;;;78.88;40.33;;;14.40;99.90;;;;;;4877957;29;20176;-92
2021/09/08 02:10:09;;;;;;;77.13;39.03;;;14.50;99.90;;;;;;4847890;29;20060;-90
2021/09/08 02:12:36;;;;;;;71.75;38.83;;;14.50;99.90;;;;;;4864108;29;20049;-89
2021/09/08 02:15:03;;;;;;;67.82;36.42;;;14.50;99.90;;;;;;4863260;29;20049;-89
2021/09/08 02:17:29;;;;;;;69.45;37.80;;;14.50;99.90;;;;;;4863775;29;20444;-90
2021/09/08 02:19:55;;;;;;;77.63;39.03;;;14.50;99.90;;;;;;4843526;29;20064;-90
2021/09/08 02:22:20;;;;;;;70.60;37.60;;;14.50;99.90;;;;;;4851193;29;20132;-89
2021/09/08 02:24:46;;;;;;;69.95;36.63;;;14.50;99.90;;;;;;4880522;29;20108;-89
2021/09/08 02:27:12;;;;;;;56.30;34.03;;;14.50;99.90;;;;;;4864246;29;20053;-90
2021/09/08 02:29:38;;;;;;;54.58;31.83;;;14.50;99.90;;;;;;4865674;29;20139;-90
2021/09/08 02:32:04;;;;;;;56.90;31.83;;;14.50;99.90;;;;;;4823489;29;20044;-89
2021/09/08 02:34:30;;;;;;;64.85;36.28;;;14.50;99.90;;;;;;4862822;29;20053;-90
2021/09/08 02:36:56;;;;;;;58.00;34.95;;;14.50;99.90;;;;;;4817200;29;20565;-89
2021/09/08 02:39:21;;;;;;;58.72;35.03;;;14.50;99.90;;;;;;4831171;29;20054;-89
2021/09/08 02:41:47;;;;;;;59.28;35.05;;;14.50;99.90;;;;;;4858916;29;20545;-91
2021/09/08 02:44:13;;;;;;;61.45;33.80;;;14.50;99.90;;;;;;4854536;29;20041;-90
2021/09/08 02:46:39;;;;;;;56.67;33.83;;;14.50;99.90;;;;;;4870402;29;20383;-89
2021/09/08 02:49:05;;;;;;;64.90;34.67;;;14.50;99.90;;;;;;4867771;29;20049;-88
2021/09/08 02:51:30;;;;;;;56.38;33.78;;;14.40;99.90;;;;;;4859208;29;20478;-90
2021/09/08 02:53:56;;;;;;;56.90;33.33;;;14.50;99.90;;;;;;4829928;29;20091;-90
2021/09/08 02:56:22;;;;;;;61.10;34.33;;;14.40;99.90;;;;;;4841901;29;20135;-90
2021/09/08 02:58:47;;;;;;;56.20;31.05;;;14.30;99.90;;;;;;4846531;29;20064;-91
2021/09/08 03:01:13;;;;;;;62.38;33.95;;;14.30;99.90;;;;;;4847293;29;20093;-90
2021/09/08 03:03:39;;;;;;;60.47;33.08;;;14.30;99.90;;;;;;4847448;29;20049;-90
2021/09/08 03:06:05;;;;;;;48.28;30.80;;;14.20;99.90;;;;;;4847092;29;20049;-90
2021/09/08 03:08:31;;;;;;;53.55;30.85;;;14.20;99.90;;;;;;4862666;29;20049;-90
2021/09/08 03:10:56;;;;;;;59.15;31.83;;;14.10;99.90;;;;;;4862198;29;20075;-90
2021/09/08 03:13:22;;;;;;;62.78;32.65;;;14.10;99.90;;;;;;4821883;29;20073;-89
2021/09/08 03:15:48;;;;;;;58.92;34.45;;;14.10;99.90;;;;;;4843052;29;20060;-90
2021/09/08 03:18:14;;;;;;;51.95;32.40;;;14.00;99.90;;;;;;4865613;29;20486;-90
2021/09/08 03:20:40;;;;;;;73.13;35.88;;;14.00;99.90;;;;;;4861674;29;20064;-89
2021/09/08 03:23:05;;;;;;;67.03;35.58;;;14.00;99.90;;;;;;4860796;29;20076;-89
2021/09/08 03:25:31;;;;;;;67.80;36.88;;;14.10;99.90;;;;;;4855612;29;20052;-89
2021/09/08 03:27:58;;;;;;;61.53;33.47;;;14.10;99.90;;;;;;4859241;29;20088;-89
2021/09/08 03:30:25;;;;;;;54.75;31.77;;;14.10;99.90;;;;;;4861744;29;20464;-89
2021/09/08 03:32:51;;;;;;;60.38;34.38;;;14.20;99.90;;;;;;4847412;29;20049;-91
2021/09/08 03:35:16;;;;;;;46.50;29.45;;;14.20;99.90;;;;;;4861457;29;20061;-90
2021/09/08 03:37:42;;;;;;;53.30;32.90;;;14.20;99.90;;;;;;4846398;29;20053;-91
2021/09/08 03:40:09;;;;;;;61.42;35.00;;;14.20;99.90;;;;;;4856729;29;20045;-90
2021/09/08 03:42:36;;;;;;;59.30;35.63;;;14.20;99.90;;;;;;4839436;29;20100;-91
2021/09/08 03:45:03;;;;;;;52.58;28.98;;;14.30;99.90;;;;;;4844883;29;20056;-90
2021/09/08 03:47:28;;;;;;;55.53;32.85;;;14.30;99.90;;;;;;4861329;29;20052;-91
2021/09/08 03:49:54;;;;;;;57.50;32.85;;;14.30;99.90;;;;;;4861041;29;20048;-90
2021/09/08 03:52:20;;;;;;;52.95;30.27;;;14.30;99.90;;;;;;4862136;29;20498;-90
2021/09/08 03:54:46;;;;;;;53.33;30.75;;;14.30;99.90;;;;;;4876950;29;20156;-90
2021/09/08 03:57:11;;;;;;;49.95;29.77;;;14.30;99.90;;;;;;4861630;29;20057;-91
2021/09/08 03:59:39;;;;;;;48.38;29.75;;;14.20;99.90;;;;;;4862262;29;20111;-90
2021/09/08 04:02:05;;;;;;;48.13;29.48;;;14.20;99.90;;;;;;4861754;29;20053;-91
2021/09/08 04:04:31;;;;;;;44.60;26.70;;;14.20;99.90;;;;;;4862151;29;20083;-90
2021/09/08 04:06:57;;;;;;;50.80;29.27;;;14.20;99.90;;;;;;4861084;29;20057;-90
2021/09/08 04:09:23;;;;;;;45.22;28.23;;;14.10;99.90;;;;;;4846362;29;20076;-90
2021/09/08 04:11:49;;;;;;;49.63;29.10;;;14.10;99.90;;;;;;4862208;29;20498;-91
2021/09/08 04:14:15;;;;;;;47.20;28.10;;;14.00;99.90;;;;;;4861127;29;20056;-91
2021/09/08 04:16:40;;;;;;;54.97;29.08;;;14.00;99.90;;;;;;4861817;29;20045;-91
2021/09/08 04:19:06;;;;;;;55.90;31.85;;;13.90;99.90;;;;;;4860707;29;20398;-90
2021/09/08 04:21:32;;;;;;;55.78;33.15;;;13.80;99.90;;;;;;4846393;29;20045;-91
2021/09/08 04:23:58;;;;;;;58.50;32.95;;;13.80;99.90;;;;;;4854564;29;20045;-90
2021/09/08 04:26:24;;;;;;;57.88;33.45;;;13.80;99.90;;;;;;4861553;29;20134;-90
2021/09/08 04:28:50;;;;;;;59.95;33.78;;;13.80;99.90;;;;;;4861590;29;20053;-91
2021/09/08 04:31:16;;;;;;;55.90;31.05;;;13.80;99.90;;;;;;4861350;29;20045;-88
2021/09/08 04:33:42;;;;;;;71.35;37.00;;;13.80;99.90;;;;;;4877302;29;20375;-89
2021/09/08 04:36:07;;;;;;;74.78;38.50;;;13.80;99.90;;;;;;4845879;29;20123;-91
2021/09/08 04:38:33;;;;;;;66.93;36.80;;;13.70;99.90;;;;;;4860989;29;20393;-89
2021/09/08 04:40:59;;;;;;;64.93;34.55;;;13.70;99.90;;;;;;4844672;29;20053;-90
2021/09/08 04:43:25;;;;;;;67.60;33.42;;;13.70;99.90;;;;;;4845730;29;20048;-90
2021/09/08 04:45:51;;;;;;;64.25;35.08;;;13.70;99.90;;;;;;4860774;29;20057;-89
2021/09/08 04:48:16;;;;;;;61.20;32.55;;;13.60;99.90;;;;;;4858243;29;20710;-91
2021/09/08 04:50:42;;;;;;;62.90;32.40;;;13.50;99.90;;;;;;4873455;29;20050;-90
2021/09/08 04:53:08;;;;;;;64.32;33.58;;;13.50;99.90;;;;;;4855411;29;20057;-89
2021/09/08 04:55:34;;;;;;;64.43;34.83;;;13.50;99.90;;;;;;4845211;29;20044;-89
2021/09/08 04:58:00;;;;;;;62.22;33.25;;;13.40;99.90;;;;;;4859568;29;20065;-89
2021/09/08 05:00:26;;;;;;;77.28;36.90;;;13.40;99.90;;;;;;4860223;29;20048;-89
2021/09/08 05:02:52;;;;;;;74.40;34.47;;;13.40;99.90;;;;;;4860002;29;20041;-89
2021/09/08 05:05:17;;;;;;;63.05;31.88;;;13.30;99.90;;;;;;4856635;29;20071;-89
2021/09/08 05:07:43;;;;;;;44.70;26.88;;;13.30;99.90;;;;;;4826849;29;20061;-88
2021/09/08 05:10:09;;;;;;;65.50;34.55;;;13.30;99.90;;;;;;4870891;29;20060;-89
2021/09/08 05:12:35;;;;;;;46.63;27.45;;;13.20;99.90;;;;;;4845586;29;20053;-89
2021/09/08 05:15:02;;;;;;;46.45;27.13;;;13.20;99.90;;;;;;4865950;29;20416;-89
2021/09/08 05:17:27;;;;;;;58.88;32.22;;;13.20;99.90;;;;;;4874466;29;20408;-88
2021/09/08 05:19:53;;;;;;;59.85;31.25;;;13.20;99.90;;;;;;4845393;29;20063;-90
2021/09/08 05:22:19;;;;;;;62.78;31.95;;;13.20;99.90;;;;;;4860751;29;20045;-90
2021/09/08 05:24:45;;;;;;;49.78;27.67;;;13.10;99.90;;;;;;4876269;29;20483;-90
2021/09/08 05:27:11;;;;;;;62.08;31.95;;;13.10;99.90;;;;;;4844971;29;20506;-89
2021/09/08 05:29:36;;;;;;;74.63;36.08;;;13.10;99.90;;;;;;4860901;29;20057;-90
2021/09/08 05:32:02;;;;;;;67.68;34.15;;;13.10;99.90;;;;;;4845528;29;20124;-89
2021/09/08 05:34:28;;;;;;;71.55;34.85;;;13.20;99.90;;;;;;4861025;29;20076;-91
2021/09/08 05:36:54;;;;;;;74.93;36.25;;;13.20;99.90;;;;;;4895825;29;20084;-90
2021/09/08 05:39:20;;;;;;;81.78;36.65;;;13.20;99.90;;;;;;4864131;29;20529;-89
2021/09/08 05:41:45;;;;;;;76.78;36.90;;;13.20;99.90;;;;;;4880398;29;20471;-90
2021/09/08 05:44:11;;;;;;;72.63;35.95;;;13.20;99.90;;;;;;4864660;29;20041;-91
2021/09/08 05:46:37;;;;;;;65.25;33.80;;;13.20;99.90;;;;;;4864880;29;20108;-88
2021/09/08 05:49:02;;;;;;;73.18;33.83;;;13.30;99.90;;;;;;4864525;29;20049;-92
2021/09/08 05:51:28;;;;;;;60.38;33.17;;;13.30;99.90;;;;;;4825155;29;20053;-90
2021/09/08 05:53:54;;;;;;;70.88;34.95;;;13.30;99.90;;;;;;4864956;29;20072;-88
2021/09/08 05:56:20;;;;;;;46.35;27.17;;;13.30;99.90;;;;;;4849202;29;20402;-88
2021/09/08 05:58:45;;;;;;;56.55;29.35;;;13.40;99.90;;;;;;4864358;29;20136;-88
2021/09/08 06:01:11;;;;;;;60.88;32.15;;;13.40;99.90;;;;;;4848395;29;20064;-90
2021/09/08 06:03:37;;;;;;;65.97;33.47;;;13.40;99.90;;;;;;4860417;29;20049;-92
2021/09/08 06:06:03;;;;;;;65.82;34.88;;;13.50;99.90;;;;;;4863834;29;20052;-91
2021/09/08 06:08:28;;;;;;;65.97;34.00;;;13.50;99.90;;;;;;4865891;29;20052;-90
2021/09/08 06:10:54;;;;;;;58.67;31.65;;;13.50;99.90;;;;;;4846102;29;20181;-89
2021/09/08 06:13:21;;;;;;;64.72;32.75;;;13.60;99.90;;;;;;4871837;29;20053;-89
2021/09/08 06:15:47;;;;;;;62.88;32.97;;;13.70;99.90;;;;;;4864069;29;20143;-90
2021/09/08 06:18:12;;;;;;;53.35;30.13;;;13.80;99.90;;;;;;4852307;29;20045;-90
2021/09/08 06:20:38;;;;;;;57.50;30.50;;;13.90;99.90;;;;;;4831082;29;20092;-90
2021/09/08 06:23:04;;;;;;;55.00;28.45;;;14.00;99.90;;;;;;4866196;29;20125;-93
2021/09/08 06:25:30;;;;;;;53.83;29.63;;;14.00;99.90;;;;;;4860410;29;20049;-90
2021/09/08 06:27:56;;;;;;;49.72;27.05;;;14.10;99.90;;;;;;4846993;29;20049;-91
2021/09/08 06:30:22;;;;;;;51.15;27.58;;;14.20;99.90;;;;;;4876824;29;20040;-91
2021/09/08 06:32:48;;;;;;;56.72;29.77;;;14.30;99.90;;;;;;4863180;29;20490;-91
2021/09/08 06:35:14;;;;;;;50.00;28.92;;;14.30;99.90;;;;;;4842436;29;20049;-90
2021/09/08 06:37:41;;;;;;;42.17;24.27;;;14.40;99.90;;;;;;4839139;29;20060;-89
2021/09/08 06:40:07;;;;;;;46.30;26.52;;;14.40;99.90;;;;;;4856918;29;20045;-91
2021/09/08 06:42:33;;;;;;;47.97;27.77;;;14.40;99.90;;;;;;4863898;29;20064;-90
2021/09/08 06:44:59;;;;;;;38.25;23.27;;;14.50;99.90;;;;;;4848875;29;20041;-90
2021/09/08 06:47:24;;;;;;;36.03;23.08;;;14.70;99.90;;;;;;4863351;29;20797;-91
2021/09/08 06:49:51;;;;;;;37.20;22.65;;;14.70;99.90;;;;;;4848221;29;20410;-89
2021/09/08 06:52:17;;;;;;;35.08;22.45;;;14.80;99.90;;;;;;4863384;29;20063;-89
2021/09/08 06:54:44;;;;;;;35.25;22.80;;;14.90;99.90;;;;;;4848136;29;20084;-89
2021/09/08 06:57:12;;;;;;;31.75;22.50;;;15.00;99.90;;;;;;4861878;29;20095;-92
2021/09/08 06:59:40;;;;;;;35.47;22.27;;;15.10;99.90;;;;;;4868181;29;20132;-89
2021/09/08 07:02:07;;;;;;;35.65;22.90;;;15.20;99.90;;;;;;4848951;29;20562;-89
2021/09/08 07:04:33;;;;;;;36.70;22.50;;;15.20;99.90;;;;;;4863012;29;20112;-90
2021/09/08 07:06:59;;;;;;;29.42;19.77;;;15.30;99.90;;;;;;4847817;29;20446;-89
2021/09/08 07:09:26;;;;;;;34.80;21.27;;;15.30;99.90;;;;;;4818525;29;20127;-90
2021/09/08 07:11:51;;;;;;;34.08;22.17;;;15.40;99.90;;;;;;4855779;29;20053;-89
2021/09/08 07:14:17;;;;;;;30.05;19.83;;;15.50;99.90;;;;;;4862346;29;20041;-90
2021/09/08 07:16:43;;;;;;;29.25;18.63;;;15.60;99.90;;;;;;4851487;29;20064;-89
2021/09/08 07:19:08;;;;;;;30.70;17.63;;;15.60;99.90;;;;;;4834871;29;20422;-91
2021/09/08 07:21:34;;;;;;;31.98;18.35;;;15.70;99.90;;;;;;4862757;29;20112;-90
2021/09/08 07:24:00;;;;;;;25.25;18.17;;;15.70;99.90;;;;;;4854198;29;20080;-90
2021/09/08 07:26:27;;;;;;;31.52;20.30;;;15.80;99.90;;;;;;4827412;29;20059;-91
2021/09/08 07:28:52;;;;;;;28.98;20.38;;;15.90;99.90;;;;;;4847626;29;20063;-91
2021/09/08 07:31:18;;;;;;;32.90;18.55;;;15.90;99.90;;;;;;4859661;29;20128;-91
2021/09/08 07:33:44;;;;;;;30.63;17.60;;;16.00;99.90;;;;;;4864695;29;20625;-89
2021/09/08 07:36:10;;;;;;;26.98;17.55;;;16.00;99.90;;;;;;4849489;29;20053;-91
2021/09/08 07:38:38;;;;;;;30.85;17.90;;;16.10;99.90;;;;;;4847068;29;20071;-90
2021/09/08 07:41:04;;;;;;;27.02;18.10;;;16.10;99.90;;;;;;4864533;29;20087;-90
2021/09/08 07:43:29;;;;;;;27.27;18.80;;;16.10;99.90;;;;;;4849059;29;20447;-91
2021/09/08 07:45:55;;;;;;;27.42;18.58;;;16.20;99.90;;;;;;4813816;29;20122;-90
2021/09/08 07:48:23;;;;;;;27.80;17.92;;;16.20;99.90;;;;;;4830426;29;20410;-89
2021/09/08 07:50:49;;;;;;;26.85;18.73;;;16.30;99.90;;;;;;4862129;29;20120;-92
2021/09/08 07:53:14;;;;;;;21.60;15.07;;;16.30;99.90;;;;;;4861421;29;20049;-93
2021/09/08 07:55:40;;;;;;;21.85;15.85;;;16.40;99.90;;;;;;4833513;29;20052;-90
2021/09/08 07:58:07;;;;;;;23.05;16.15;;;16.50;99.90;;;;;;4830566;29;20092;-90
2021/09/08 08:00:35;;;;;;;27.10;17.02;;;16.60;99.90;;;;;;4831598;29;20056;-91
2021/09/08 08:03:02;;;;;;;22.65;16.00;;;16.70;99.90;;;;;;4861782;29;20057;-92
2021/09/08 08:05:29;;;;;;;25.63;15.95;;;16.80;99.90;;;;;;4831682;29;20057;-94
2021/09/08 08:07:55;;;;;;;22.02;15.60;;;16.80;99.90;;;;;;4862910;29;20163;-91
2021/09/08 08:10:20;;;;;;;20.25;14.82;;;16.90;99.90;;;;;;4841730;29;20515;-91
2021/09/08 08:12:46;;;;;;;21.80;14.63;;;17.00;99.90;;;;;;4842368;29;20050;-92
2021/09/08 08:15:13;;;;;;;17.67;12.68;;;17.10;99.90;;;;;;4843041;29;20049;-92
2021/09/08 08:17:41;;;;;;;17.70;12.23;;;17.20;99.90;;;;;;4833612;29;20088;-92
2021/09/08 08:20:09;;;;;;;19.40;12.38;;;17.40;99.90;;;;;;4861841;29;20144;-93
2021/09/08 08:22:35;;;;;;;20.75;13.65;;;17.50;99.90;;;;;;4830991;29;20049;-92
2021/09/08 08:25:03;;;;;;;19.48;13.00;;;17.50;99.90;;;;;;4851017;29;20060;-92
2021/09/08 08:27:28;;;;;;;16.35;12.18;;;17.60;99.90;;;;;;4857101;29;20053;-91
2021/09/08 08:29:54;;;;;;;16.35;12.05;;;17.70;99.90;;;;;;4842040;29;20071;-92
2021/09/08 08:32:20;;;;;;;24.83;12.10;;;17.80;99.90;;;;;;4849524;29;20190;-92
2021/09/08 08:34:45;;;;;;;18.42;12.18;;;17.90;99.90;;;;;;4850359;29;20049;-92
2021/09/08 08:37:11;;;;;;;19.73;12.32;;;18.00;99.90;;;;;;4861821;29;20053;-92
2021/09/08 08:39:38;;;;;;;20.80;11.45;;;18.10;99.90;;;;;;4845742;29;20063;-91
2021/09/08 08:42:09;;;;;;;13.30;10.93;;;18.20;99.90;;;;;;4849380;29;20077;-92
2021/09/08 08:44:36;;;;;;;19.02;13.13;;;18.30;99.90;;;;;;4862447;29;20061;-90
2021/09/08 08:47:02;;;;;;;18.08;12.40;;;18.30;99.90;;;;;;4831576;29;20417;-91
2021/09/08 08:49:28;;;;;;;18.38;11.82;;;18.40;99.90;;;;;;4845387;29;20057;-92
2021/09/08 08:51:54;;;;;;;15.52;11.95;;;18.50;99.90;;;;;;4831135;29;20045;-91
2021/09/08 08:54:19;;;;;;;15.52;12.40;;;18.60;99.90;;;;;;4848592;29;20455;-91
2021/09/08 08:56:45;;;;;;;15.60;11.68;;;18.60;99.90;;;;;;4844939;29;20045;-89
2021/09/08 08:59:11;;;;;;;16.40;11.13;;;18.80;99.90;;;;;;4844840;29;20104;-88
2021/09/08 09:01:38;;;;;;;17.83;11.38;;;18.90;99.90;;;;;;4859987;29;20116;-89
2021/09/08 09:04:07;;;;;;;15.75;11.38;;;19.00;99.90;;;;;;4830191;29;20053;-88
2021/09/08 09:06:35;;;;;;;14.80;10.70;;;19.10;99.90;;;;;;4859671;29;20052;-91
2021/09/08 09:09:12;;;;;;;14.75;10.18;;;19.10;99.90;;;;;;4859739;29;20107;-88
2021/09/08 09:11:39;;;;;;;16.10;10.20;;;19.20;99.90;;;;;;4859779;29;20053;-89
2021/09/08 09:14:06;;;;;;;16.70;10.73;;;19.30;99.90;;;;;;4860181;29;20527;-89
2021/09/08 09:16:35;;;;;;;18.70;11.00;;;19.40;99.90;;;;;;4858745;29;20502;-88
2021/09/08 09:19:01;;;;;;;18.23;10.52;;;19.50;99.90;;;;;;4842768;29;20469;-88
2021/09/08 09:21:27;;;;;;;15.60;11.50;;;19.60;99.90;;;;;;4852336;29;20125;-88
2021/09/08 09:23:58;;;;;;;13.25;11.05;;;19.70;99.90;;;;;;4835443;29;20049;-87
2021/09/08 09:26:29;;;;;;;12.60;10.10;;;19.80;99.90;;;;;;4857407;29;20045;-88
2021/09/08 09:29:09;;;;;;;15.77;10.73;;;19.90;99.90;;;;;;4842669;29;20096;-87
2021/09/08 09:31:48;;;;;;;12.48;9.98;;;19.90;99.90;;;;;;4856342;29;20077;-88
2021/09/08 09:34:14;;;;;;;17.33;11.25;;;20.00;99.90;;;;;;4843043;29;20041;-87
2021/09/08 09:36:39;;;;;;;22.65;10.93;;;20.10;99.90;;;;;;4858181;29;20056;-87
2021/09/08 09:39:05;;;;;;;12.50;10.45;;;20.10;99.90;;;;;;4843629;29;20482;-87
2021/09/08 09:41:33;;;;;;;14.48;10.18;;;20.30;99.90;;;;;;4858056;29;20053;-88
2021/09/08 09:44:10;;;;;;;14.70;9.90;;;20.30;99.90;;;;;;4858736;29;20053;-88
2021/09/08 09:46:39;;;;;;;14.52;11.35;;;20.50;99.90;;;;;;4858212;29;20049;-88
2021/09/08 09:49:05;;;;;;;17.77;10.40;;;20.50;99.90;;;;;;4858798;29;20055;-88
2021/09/08 09:51:31;;;;;;;20.75;11.85;;;20.70;99.90;;;;;;4842747;29;20053;-87
2021/09/08 09:53:58;;;;;;;16.08;10.35;;;20.80;99.90;;;;;;4842652;29;20490;-88
2021/09/08 09:56:24;;;;;;;13.18;10.13;;;20.90;99.90;;;;;;4858484;29;20052;-88
2021/09/08 09:58:50;;;;;;;18.67;10.05;;;20.90;99.90;;;;;;4839467;29;20057;-87
2021/09/08 10:01:18;;;;;;;16.02;11.40;;;21.00;99.90;;;;;;4840255;29;20465;-87
2021/09/08 10:03:44;;;;;;;18.40;9.23;;;21.10;99.90;;;;;;4839123;29;20233;-88
2021/09/08 10:06:10;;;;;;;11.90;8.88;;;21.20;99.90;;;;;;4850485;29;20503;-88
2021/09/08 10:08:43;;;;;;;13.02;9.23;;;21.30;99.90;;;;;;4853838;29;20840;-87
2021/09/08 10:11:12;;;;;;;13.13;9.70;;;21.40;99.90;;;;;;4835462;29;20061;-88
2021/09/08 10:13:45;;;;;;;13.90;9.95;;;21.40;99.90;;;;;;4854517;29;20048;-88
2021/09/08 10:16:12;;;;;;;13.10;9.23;;;21.50;99.90;;;;;;4850923;29;20080;-87
2021/09/08 10:18:40;;;;;;;14.35;9.35;;;21.60;99.90;;;;;;4841887;29;20499;-87
2021/09/08 10:21:15;;;;;;;14.67;8.60;;;21.60;99.90;;;;;;4843023;29;20050;-87
2021/09/08 10:23:54;;;;;;;13.30;8.65;;;21.70;99.90;;;;;;4856465;29;20655;-88
2021/09/08 10:26:20;;;;;;;15.27;8.52;;;21.80;99.90;;;;;;4840147;29;20065;-87
2021/09/08 10:28:46;;;;;;;16.42;9.00;;;21.90;99.90;;;;;;4855971;29;20061;-88
2021/09/08 10:31:14;;;;;;;11.73;7.95;;;21.90;99.90;;;;;;4838120;29;20045;-87
2021/09/08 10:33:41;;;;;;;13.02;8.10;;;22.00;99.90;;;;;;4847249;29;20486;-88
2021/09/08 10:36:12;;;;;;;11.43;8.65;;;22.10;99.90;;;;;;4838973;29;20055;-88
2021/09/08 10:38:38;;;;;;;11.82;7.75;;;22.20;99.90;;;;;;4857306;29;20053;-88
2021/09/08 10:41:06;;;;;;;13.85;8.07;;;22.20;99.90;;;;;;4853592;29;20046;-88
2021/09/08 10:43:34;;;;;;;16.98;8.00;;;22.30;99.90;;;;;;4842523;29;20084;-88
2021/09/08 10:46:01;;;;;;;11.38;7.03;;;22.40;99.90;;;;;;4852369;29;20061;-88
2021/09/08 10:48:37;;;;;;;21.38;9.07;;;22.50;99.90;;;;;;4858227;29;20134;-88
2021/09/08 10:51:04;;;;;;;11.43;8.57;;;22.50;99.90;;;;;;4852152;29;20443;-88
2021/09/08 10:53:32;;;;;;;15.70;9.13;;;22.50;99.90;;;;;;4858039;29;20080;-88
2021/09/08 10:55:58;;;;;;;11.77;8.82;;;22.50;99.90;;;;;;4836333;29;20045;-88
2021/09/08 10:58:55;;;;;;;10.75;8.10;;;22.50;99.90;;;;;;4842526;29;20061;-88
2021/09/08 11:01:21;;;;;;;12.98;9.40;;;22.50;99.90;;;;;;4839174;29;20061;-88
2021/09/08 11:03:47;;;;;;;10.63;8.88;;;22.50;99.90;;;;;;4857355;29;20066;-88
2021/09/08 11:06:13;;;;;;;12.07;9.35;;;22.50;99.90;;;;;;4858149;29;20069;-88
2021/09/08 11:08:39;;;;;;;12.85;8.35;;;22.60;99.90;;;;;;4841919;29;20053;-89
2021/09/08 11:11:05;;;;;;;10.65;8.32;;;22.60;99.90;;;;;;4852551;29;20113;-88
2021/09/08 11:13:31;;;;;;;12.95;8.65;;;22.60;99.90;;;;;;4857901;29;20467;-88
2021/09/08 11:15:57;;;;;;;12.32;8.30;;;22.70;99.90;;;;;;4866168;29;20057;-88
2021/09/08 11:18:34;;;;;;;9.60;7.18;;;22.70;99.90;;;;;;4841925;29;20042;-88
2021/09/08 11:21:01;;;;;;;10.35;7.90;;;22.80;99.90;;;;;;4857248;29;20069;-88
2021/09/08 11:23:27;;;;;;;10.52;6.82;;;22.80;99.90;;;;;;4853027;29;20056;-88
2021/09/08 11:25:53;;;;;;;13.88;7.68;;;22.90;99.90;;;;;;4826290;29;20041;-88
2021/09/08 11:28:19;;;;;;;11.05;7.47;;;23.00;99.90;;;;;;4853760;29;20088;-87
2021/09/08 11:30:45;;;;;;;10.80;7.05;;;23.00;99.90;;;;;;4857073;29;20132;-88
2021/09/08 11:33:15;;;;;;;9.57;7.57;;;23.10;99.90;;;;;;4836615;29;20045;-87
2021/09/08 11:35:48;;;;;;;9.73;6.75;;;23.10;99.90;;;;;;4857097;29;20599;-87
2021/09/08 11:38:18;;;;;;;8.68;6.38;;;23.20;99.90;;;;;;4853278;29;20380;-87
2021/09/08 11:41:04;;;;;;;11.27;6.65;;;23.30;99.90;;;;;;4856903;29;20056;-87
2021/09/08 11:43:34;;;;;;;6.97;6.25;;;23.50;99.90;;;;;;4826954;29;20052;-86
2021/09/08 11:46:22;;;;;;;9.50;6.07;;;23.60;99.90;;;;;;4835763;29;20057;-87
2021/09/08 11:49:01;;;;;;;11.45;6.05;;;23.70;99.90;;;;;;4822726;29;20057;-87
2021/09/08 11:51:27;;;;;;;14.15;5.80;;;23.90;99.90;;;;;;4841848;29;20053;-87
2021/09/08 11:53:55;;;;;;;8.25;5.97;;;23.90;99.90;;;;;;4849614;29;20136;-87
2021/09/08 11:56:26;;;;;;;7.45;5.63;;;24.00;99.90;;;;;;4852409;29;20261;-87
2021/09/08 11:58:57;;;;;;;9.02;5.85;;;24.10;99.90;;;;;;4853479;29;20494;-87
2021/09/08 12:01:23;;;;;;;7.90;5.63;;;24.20;99.90;;;;;;4857217;29;20482;-86
2021/09/08 12:03:57;;;;;;;13.15;5.53;;;24.30;99.90;;;;;;4851099;29;20049;-86
2021/09/08 12:06:34;;;;;;;8.77;5.57;;;24.30;99.90;;;;;;4856956;29;20126;-87
2021/09/08 12:09:11;;;;;;;8.18;5.85;;;24.50;99.90;;;;;;4850030;29;20109;-87
2021/09/08 12:11:39;;;;;;;13.15;6.20;;;24.60;99.90;;;;;;4850315;29;20049;-86
2021/09/08 12:14:27;;;;;;;11.23;6.60;;;24.70;99.90;;;;;;4835925;29;20049;-87
2021/09/08 12:16:57;;;;;;;7.43;5.68;;;24.80;99.90;;;;;;4844984;29;20098;-87
2021/09/08 12:19:29;;;;;;;9.85;6.20;;;24.90;99.90;;;;;;4854309;29;20053;-87
2021/09/08 12:22:14;;;;;;;15.80;5.97;;;25.00;99.90;;;;;;4856156;29;20095;-87
2021/09/08 12:24:44;;;;;;;6.60;5.60;;;25.10;99.90;;;;;;4856148;29;20050;-87
2021/09/08 12:27:32;;;;;;;12.18;6.10;;;25.20;99.90;;;;;;4838417;29;20061;-86